sensor_id;sensor_type;location;lat;lon;timestamp;P1;durP1;ratioP1;P2;durP2;ratioP2
8247;SDS011;4164;49.844;8.830;2023-03-01T00:01:58;18.93;;;9.80;;
8247;SDS011;4164;49.844;8.830;2023-03-01T00:04:24;17.83;;;9.57;;
8247;SDS011;4164;49.844;8.830;2023-03-01T00:06:49;14.97;;;9.27;;
8247;SDS011;4164;49.844;8.830;2023-03-01T00:09:15;18.97;;;9.17;;
8247;SDS011;4164;49.844;8.830;2023-03-01T00:11:41;15.90;;;9.77;;
8247;SDS011;4164;49.844;8.830;2023-03-01T00:14:07;15.07;;;8.30;;
8247;SDS011;4164;49.844;8.830;2023-03-01T00:16:37;23.73;;;11.50;;
8247;SDS011;4164;49.844;8.830;2023-03-01T00:19:07;16.33;;;9.73;;
8247;SDS011;4164;49.844;8.830;2023-03-01T00:21:36;19.03;;;10.63;;
8247;SDS011;4164;49.844;8.830;2023-03-01T00:24:01;21.17;;;9.63;;
8247;SDS011;4164;49.844;8.830;2023-03-01T00:26:27;17.57;;;10.10;;
8247;SDS011;4164;49.844;8.830;2023-03-01T00:28:53;19.10;;;10.10;;
8247;SDS011;4164;49.844;8.830;2023-03-01T00:31:21;19.87;;;10.33;;
8247;SDS011;4164;49.844;8.830;2023-03-01T00:33:54;15.47;;;9.80;;
8247;SDS011;4164;49.844;8.830;2023-03-01T00:36:22;21.40;;;10.90;;
8247;SDS011;4164;49.844;8.830;2023-03-01T00:38:49;18.43;;;10.83;;
8247;SDS011;4164;49.844;8.830;2023-03-01T00:41:15;28.30;;;12.73;;
8247;SDS011;4164;49.844;8.830;2023-03-01T00:43:42;25.50;;;12.03;;
8247;SDS011;4164;49.844;8.830;2023-03-01T00:46:12;22.73;;;11.03;;
8247;SDS011;4164;49.844;8.830;2023-03-01T00:48:40;22.17;;;12.03;;
8247;SDS011;4164;49.844;8.830;2023-03-01T00:51:10;18.90;;;10.43;;
8247;SDS011;4164;49.844;8.830;2023-03-01T00:53:38;18.83;;;10.63;;
8247;SDS011;4164;49.844;8.830;2023-03-01T00:56:05;17.50;;;9.37;;
8247;SDS011;4164;49.844;8.830;2023-03-01T00:58:33;16.67;;;9.57;;
8247;SDS011;4164;49.844;8.830;2023-03-01T01:00:59;17.37;;;10.10;;
8247;SDS011;4164;49.844;8.830;2023-03-01T01:03:24;15.77;;;10.10;;
8247;SDS011;4164;49.844;8.830;2023-03-01T01:05:51;18.10;;;10.07;;
8247;SDS011;4164;49.844;8.830;2023-03-01T01:08:18;20.43;;;10.37;;
8247;SDS011;4164;49.844;8.830;2023-03-01T01:10:44;18.43;;;10.20;;
8247;SDS011;4164;49.844;8.830;2023-03-01T01:13:10;16.30;;;9.77;;
8247;SDS011;4164;49.844;8.830;2023-03-01T01:15:36;16.53;;;10.07;;
8247;SDS011;4164;49.844;8.830;2023-03-01T01:18:02;16.17;;;9.60;;
8247;SDS011;4164;49.844;8.830;2023-03-01T01:20:28;19.27;;;9.93;;
8247;SDS011;4164;49.844;8.830;2023-03-01T01:22:54;16.87;;;10.73;;
8247;SDS011;4164;49.844;8.830;2023-03-01T01:25:19;19.87;;;11.10;;
8247;SDS011;4164;49.844;8.830;2023-03-01T01:27:45;18.90;;;10.23;;
8247;SDS011;4164;49.844;8.830;2023-03-01T01:30:11;20.50;;;10.87;;
8247;SDS011;4164;49.844;8.830;2023-03-01T01:32:37;17.23;;;9.63;;
8247;SDS011;4164;49.844;8.830;2023-03-01T01:35:02;16.60;;;9.87;;
8247;SDS011;4164;49.844;8.830;2023-03-01T01:37:28;19.97;;;11.10;;
8247;SDS011;4164;49.844;8.830;2023-03-01T01:39:59;17.50;;;10.30;;
8247;SDS011;4164;49.844;8.830;2023-03-01T01:42:28;20.43;;;11.53;;
8247;SDS011;4164;49.844;8.830;2023-03-01T01:48:00;39.13;;;18.37;;
8247;SDS011;4164;49.844;8.830;2023-03-01T01:50:35;28.20;;;14.67;;
8247;SDS011;4164;49.844;8.830;2023-03-01T01:53:22;27.37;;;13.50;;
8247;SDS011;4164;49.844;8.830;2023-03-01T01:55:51;30.53;;;15.67;;
8247;SDS011;4164;49.844;8.830;2023-03-01T01:58:22;29.00;;;15.20;;
8247;SDS011;4164;49.844;8.830;2023-03-01T02:00:52;27.97;;;14.37;;
8247;SDS011;4164;49.844;8.830;2023-03-01T02:03:39;30.90;;;15.50;;
8247;SDS011;4164;49.844;8.830;2023-03-01T02:06:11;30.53;;;14.60;;
8247;SDS011;4164;49.844;8.830;2023-03-01T02:08:53;39.97;;;16.90;;
8247;SDS011;4164;49.844;8.830;2023-03-01T02:11:23;29.73;;;14.33;;
8247;SDS011;4164;49.844;8.830;2023-03-01T02:13:48;25.33;;;12.47;;
8247;SDS011;4164;49.844;8.830;2023-03-01T02:16:15;21.33;;;10.87;;
8247;SDS011;4164;49.844;8.830;2023-03-01T02:18:42;35.23;;;13.87;;
8247;SDS011;4164;49.844;8.830;2023-03-01T02:21:13;50.73;;;17.40;;
8247;SDS011;4164;49.844;8.830;2023-03-01T02:23:53;63.60;;;18.27;;
8247;SDS011;4164;49.844;8.830;2023-03-01T02:26:22;29.07;;;13.17;;
8247;SDS011;4164;49.844;8.830;2023-03-01T02:29:05;26.67;;;11.70;;
8247;SDS011;4164;49.844;8.830;2023-03-01T02:31:31;25.50;;;12.10;;
8247;SDS011;4164;49.844;8.830;2023-03-01T02:34:06;23.93;;;12.50;;
8247;SDS011;4164;49.844;8.830;2023-03-01T02:36:56;21.07;;;11.40;;
8247;SDS011;4164;49.844;8.830;2023-03-01T02:39:46;18.13;;;10.43;;
8247;SDS011;4164;49.844;8.830;2023-03-01T02:42:15;21.43;;;11.10;;
8247;SDS011;4164;49.844;8.830;2023-03-01T02:44:45;22.97;;;11.00;;
8247;SDS011;4164;49.844;8.830;2023-03-01T02:47:11;26.03;;;11.67;;
8247;SDS011;4164;49.844;8.830;2023-03-01T02:49:36;26.20;;;12.20;;
8247;SDS011;4164;49.844;8.830;2023-03-01T02:52:16;21.00;;;12.20;;
8247;SDS011;4164;49.844;8.830;2023-03-01T02:55:00;26.73;;;11.83;;
8247;SDS011;4164;49.844;8.830;2023-03-01T02:57:33;30.20;;;13.03;;
8247;SDS011;4164;49.844;8.830;2023-03-01T03:00:14;23.07;;;11.33;;
8247;SDS011;4164;49.844;8.830;2023-03-01T03:02:44;29.67;;;11.77;;
8247;SDS011;4164;49.844;8.830;2023-03-01T03:05:28;21.37;;;11.57;;
8247;SDS011;4164;49.844;8.830;2023-03-01T03:07:55;16.83;;;10.07;;
8247;SDS011;4164;49.844;8.830;2023-03-01T03:10:23;18.30;;;10.33;;
8247;SDS011;4164;49.844;8.830;2023-03-01T03:12:55;22.67;;;10.40;;
8247;SDS011;4164;49.844;8.830;2023-03-01T03:15:26;16.33;;;9.67;;
8247;SDS011;4164;49.844;8.830;2023-03-01T03:17:53;16.33;;;9.20;;
8247;SDS011;4164;49.844;8.830;2023-03-01T03:20:20;21.73;;;11.13;;
8247;SDS011;4164;49.844;8.830;2023-03-01T03:22:49;18.70;;;11.10;;
8247;SDS011;4164;49.844;8.830;2023-03-01T03:25:17;20.93;;;11.13;;
8247;SDS011;4164;49.844;8.830;2023-03-01T03:27:44;18.40;;;10.70;;
8247;SDS011;4164;49.844;8.830;2023-03-01T03:30:12;14.40;;;9.03;;
8247;SDS011;4164;49.844;8.830;2023-03-01T03:32:42;17.60;;;9.43;;
8247;SDS011;4164;49.844;8.830;2023-03-01T03:35:17;17.93;;;10.33;;
8247;SDS011;4164;49.844;8.830;2023-03-01T03:37:44;19.17;;;10.97;;
8247;SDS011;4164;49.844;8.830;2023-03-01T03:40:51;18.30;;;10.40;;
8247;SDS011;4164;49.844;8.830;2023-03-01T03:43:16;19.03;;;10.07;;
8247;SDS011;4164;49.844;8.830;2023-03-01T03:45:44;17.37;;;10.17;;
8247;SDS011;4164;49.844;8.830;2023-03-01T03:48:11;19.83;;;10.47;;
8247;SDS011;4164;49.844;8.830;2023-03-01T03:50:37;20.80;;;10.57;;
8247;SDS011;4164;49.844;8.830;2023-03-01T03:53:05;21.50;;;11.30;;
8247;SDS011;4164;49.844;8.830;2023-03-01T03:55:33;18.10;;;10.90;;
8247;SDS011;4164;49.844;8.830;2023-03-01T03:58:00;18.37;;;10.33;;
8247;SDS011;4164;49.844;8.830;2023-03-01T04:00:31;21.40;;;11.67;;
8247;SDS011;4164;49.844;8.830;2023-03-01T04:02:58;18.67;;;10.70;;
8247;SDS011;4164;49.844;8.830;2023-03-01T04:05:24;20.63;;;11.13;;
8247;SDS011;4164;49.844;8.830;2023-03-01T04:07:50;21.23;;;12.60;;
8247;SDS011;4164;49.844;8.830;2023-03-01T04:10:25;19.63;;;11.40;;
8247;SDS011;4164;49.844;8.830;2023-03-01T04:12:52;20.00;;;11.13;;
8247;SDS011;4164;49.844;8.830;2023-03-01T04:15:18;16.97;;;9.87;;
8247;SDS011;4164;49.844;8.830;2023-03-01T04:17:44;16.90;;;10.03;;
8247;SDS011;4164;49.844;8.830;2023-03-01T04:20:12;21.67;;;10.63;;
8247;SDS011;4164;49.844;8.830;2023-03-01T04:22:42;20.50;;;11.33;;
8247;SDS011;4164;49.844;8.830;2023-03-01T04:25:08;19.83;;;11.10;;
8247;SDS011;4164;49.844;8.830;2023-03-01T04:27:34;16.53;;;9.93;;
8247;SDS011;4164;49.844;8.830;2023-03-01T04:30:01;21.20;;;11.10;;
8247;SDS011;4164;49.844;8.830;2023-03-01T04:32:28;21.83;;;11.27;;
8247;SDS011;4164;49.844;8.830;2023-03-01T04:34:53;17.37;;;10.00;;
8247;SDS011;4164;49.844;8.830;2023-03-01T04:37:19;20.50;;;10.67;;
8247;SDS011;4164;49.844;8.830;2023-03-01T04:39:44;17.23;;;10.63;;
8247;SDS011;4164;49.844;8.830;2023-03-01T04:42:12;18.37;;;10.20;;
8247;SDS011;4164;49.844;8.830;2023-03-01T04:44:38;16.13;;;10.00;;
8247;SDS011;4164;49.844;8.830;2023-03-01T04:47:04;21.20;;;10.37;;
8247;SDS011;4164;49.844;8.830;2023-03-01T04:49:29;18.57;;;10.50;;
8247;SDS011;4164;49.844;8.830;2023-03-01T04:51:55;15.50;;;9.27;;
8247;SDS011;4164;49.844;8.830;2023-03-01T04:54:23;20.00;;;10.23;;
8247;SDS011;4164;49.844;8.830;2023-03-01T04:56:48;21.73;;;10.90;;
8247;SDS011;4164;49.844;8.830;2023-03-01T04:59:14;19.03;;;10.17;;
8247;SDS011;4164;49.844;8.830;2023-03-01T05:01:39;15.87;;;9.93;;
8247;SDS011;4164;49.844;8.830;2023-03-01T05:04:08;16.90;;;9.87;;
8247;SDS011;4164;49.844;8.830;2023-03-01T05:06:37;17.47;;;10.37;;
8247;SDS011;4164;49.844;8.830;2023-03-01T05:09:03;14.47;;;9.67;;
8247;SDS011;4164;49.844;8.830;2023-03-01T05:11:28;21.53;;;11.30;;
8247;SDS011;4164;49.844;8.830;2023-03-01T05:13:58;19.40;;;11.20;;
8247;SDS011;4164;49.844;8.830;2023-03-01T05:16:24;19.23;;;10.37;;
8247;SDS011;4164;49.844;8.830;2023-03-01T05:18:49;23.67;;;11.00;;
8247;SDS011;4164;49.844;8.830;2023-03-01T05:21:15;24.43;;;10.70;;
8247;SDS011;4164;49.844;8.830;2023-03-01T05:23:42;18.97;;;11.43;;
8247;SDS011;4164;49.844;8.830;2023-03-01T05:26:08;21.07;;;10.47;;
8247;SDS011;4164;49.844;8.830;2023-03-01T05:28:34;21.47;;;11.13;;
8247;SDS011;4164;49.844;8.830;2023-03-01T05:31:00;16.60;;;9.90;;
8247;SDS011;4164;49.844;8.830;2023-03-01T05:33:26;21.87;;;10.60;;
8247;SDS011;4164;49.844;8.830;2023-03-01T05:35:52;19.43;;;11.23;;
8247;SDS011;4164;49.844;8.830;2023-03-01T05:38:18;18.90;;;10.73;;
8247;SDS011;4164;49.844;8.830;2023-03-01T05:40:45;24.93;;;12.30;;
8247;SDS011;4164;49.844;8.830;2023-03-01T05:43:13;24.67;;;13.40;;
8247;SDS011;4164;49.844;8.830;2023-03-01T05:45:40;33.20;;;15.60;;
8247;SDS011;4164;49.844;8.830;2023-03-01T05:48:06;50.83;;;20.60;;
8247;SDS011;4164;49.844;8.830;2023-03-01T05:50:34;56.57;;;22.40;;
8247;SDS011;4164;49.844;8.830;2023-03-01T05:53:02;42.73;;;18.37;;
8247;SDS011;4164;49.844;8.830;2023-03-01T05:55:30;34.60;;;16.20;;
8247;SDS011;4164;49.844;8.830;2023-03-01T05:58:00;27.07;;;13.77;;
8247;SDS011;4164;49.844;8.830;2023-03-01T06:00:27;21.63;;;13.03;;
8247;SDS011;4164;49.844;8.830;2023-03-01T06:02:53;22.83;;;11.90;;
8247;SDS011;4164;49.844;8.830;2023-03-01T06:05:19;23.77;;;12.80;;
8247;SDS011;4164;49.844;8.830;2023-03-01T06:07:45;23.73;;;13.83;;
8247;SDS011;4164;49.844;8.830;2023-03-01T06:10:11;22.17;;;12.37;;
8247;SDS011;4164;49.844;8.830;2023-03-01T06:12:38;18.40;;;11.53;;
8247;SDS011;4164;49.844;8.830;2023-03-01T06:15:06;20.23;;;12.77;;
8247;SDS011;4164;49.844;8.830;2023-03-01T06:17:34;23.20;;;12.60;;
8247;SDS011;4164;49.844;8.830;2023-03-01T06:20:03;20.90;;;11.47;;
8247;SDS011;4164;49.844;8.830;2023-03-01T06:22:30;19.67;;;11.77;;
8247;SDS011;4164;49.844;8.830;2023-03-01T06:24:55;22.63;;;11.90;;
8247;SDS011;4164;49.844;8.830;2023-03-01T06:27:21;22.53;;;12.27;;
8247;SDS011;4164;49.844;8.830;2023-03-01T06:29:46;23.97;;;11.67;;
8247;SDS011;4164;49.844;8.830;2023-03-01T06:32:12;21.33;;;11.77;;
8247;SDS011;4164;49.844;8.830;2023-03-01T06:34:38;22.50;;;12.20;;
8247;SDS011;4164;49.844;8.830;2023-03-01T06:37:04;22.37;;;13.07;;
8247;SDS011;4164;49.844;8.830;2023-03-01T06:39:31;19.83;;;12.37;;
8247;SDS011;4164;49.844;8.830;2023-03-01T06:41:57;23.63;;;12.67;;
8247;SDS011;4164;49.844;8.830;2023-03-01T06:44:22;30.03;;;15.17;;
8247;SDS011;4164;49.844;8.830;2023-03-01T06:46:48;37.73;;;17.87;;
8247;SDS011;4164;49.844;8.830;2023-03-01T06:49:14;35.17;;;15.83;;
8247;SDS011;4164;49.844;8.830;2023-03-01T06:51:41;25.97;;;15.03;;
8247;SDS011;4164;49.844;8.830;2023-03-01T06:54:06;23.33;;;13.40;;
8247;SDS011;4164;49.844;8.830;2023-03-01T06:56:32;25.23;;;12.70;;
8247;SDS011;4164;49.844;8.830;2023-03-01T06:58:58;20.37;;;12.03;;
8247;SDS011;4164;49.844;8.830;2023-03-01T07:01:24;22.67;;;12.13;;
8247;SDS011;4164;49.844;8.830;2023-03-01T07:03:50;17.90;;;11.20;;
8247;SDS011;4164;49.844;8.830;2023-03-01T07:06:15;21.10;;;11.40;;
8247;SDS011;4164;49.844;8.830;2023-03-01T07:08:42;24.20;;;12.77;;
8247;SDS011;4164;49.844;8.830;2023-03-01T07:11:08;19.97;;;12.10;;
8247;SDS011;4164;49.844;8.830;2023-03-01T07:13:33;22.07;;;12.77;;
8247;SDS011;4164;49.844;8.830;2023-03-01T07:15:59;23.03;;;12.83;;
8247;SDS011;4164;49.844;8.830;2023-03-01T07:18:25;23.17;;;12.33;;
8247;SDS011;4164;49.844;8.830;2023-03-01T07:20:50;22.53;;;12.77;;
8247;SDS011;4164;49.844;8.830;2023-03-01T07:23:16;21.70;;;12.27;;
8247;SDS011;4164;49.844;8.830;2023-03-01T07:25:41;22.83;;;13.17;;
8247;SDS011;4164;49.844;8.830;2023-03-01T07:28:07;22.40;;;13.27;;
8247;SDS011;4164;49.844;8.830;2023-03-01T07:30:32;20.23;;;11.50;;
8247;SDS011;4164;49.844;8.830;2023-03-01T07:32:58;25.80;;;12.90;;
8247;SDS011;4164;49.844;8.830;2023-03-01T07:35:26;21.80;;;12.20;;
8247;SDS011;4164;49.844;8.830;2023-03-01T07:37:52;21.63;;;11.47;;
8247;SDS011;4164;49.844;8.830;2023-03-01T07:40:18;17.87;;;10.77;;
8247;SDS011;4164;49.844;8.830;2023-03-01T07:42:44;18.03;;;10.90;;
8247;SDS011;4164;49.844;8.830;2023-03-01T07:45:10;19.33;;;11.37;;
8247;SDS011;4164;49.844;8.830;2023-03-01T07:47:36;16.63;;;11.13;;
8247;SDS011;4164;49.844;8.830;2023-03-01T07:50:02;18.47;;;10.53;;
8247;SDS011;4164;49.844;8.830;2023-03-01T07:52:28;18.47;;;11.00;;
8247;SDS011;4164;49.844;8.830;2023-03-01T07:54:54;18.80;;;11.60;;
8247;SDS011;4164;49.844;8.830;2023-03-01T07:57:20;20.03;;;11.80;;
8247;SDS011;4164;49.844;8.830;2023-03-01T07:59:45;20.77;;;11.87;;
8247;SDS011;4164;49.844;8.830;2023-03-01T08:02:11;19.27;;;11.53;;
8247;SDS011;4164;49.844;8.830;2023-03-01T08:04:36;20.53;;;11.03;;
8247;SDS011;4164;49.844;8.830;2023-03-01T08:07:04;17.37;;;11.30;;
8247;SDS011;4164;49.844;8.830;2023-03-01T08:09:30;18.23;;;11.47;;
8247;SDS011;4164;49.844;8.830;2023-03-01T08:11:57;18.13;;;12.17;;
8247;SDS011;4164;49.844;8.830;2023-03-01T08:14:25;20.30;;;11.50;;
8247;SDS011;4164;49.844;8.830;2023-03-01T08:16:51;21.20;;;11.87;;
8247;SDS011;4164;49.844;8.830;2023-03-01T08:19:17;19.27;;;11.00;;
8247;SDS011;4164;49.844;8.830;2023-03-01T08:21:43;20.47;;;11.53;;
8247;SDS011;4164;49.844;8.830;2023-03-01T08:24:08;19.67;;;11.23;;
8247;SDS011;4164;49.844;8.830;2023-03-01T08:26:37;22.43;;;11.63;;
8247;SDS011;4164;49.844;8.830;2023-03-01T08:29:03;18.83;;;11.27;;
8247;SDS011;4164;49.844;8.830;2023-03-01T08:31:36;21.13;;;11.43;;
8247;SDS011;4164;49.844;8.830;2023-03-01T08:34:04;17.33;;;10.63;;
8247;SDS011;4164;49.844;8.830;2023-03-01T08:36:33;19.57;;;11.17;;
8247;SDS011;4164;49.844;8.830;2023-03-01T08:39:02;19.50;;;11.67;;
8247;SDS011;4164;49.844;8.830;2023-03-01T08:41:28;17.67;;;11.80;;
8247;SDS011;4164;49.844;8.830;2023-03-01T08:43:54;22.60;;;11.73;;
8247;SDS011;4164;49.844;8.830;2023-03-01T08:46:24;17.80;;;11.37;;
8247;SDS011;4164;49.844;8.830;2023-03-01T08:48:53;19.10;;;10.63;;
8247;SDS011;4164;49.844;8.830;2023-03-01T08:51:22;19.93;;;12.00;;
8247;SDS011;4164;49.844;8.830;2023-03-01T08:53:48;20.33;;;11.57;;
8247;SDS011;4164;49.844;8.830;2023-03-01T08:56:14;19.40;;;11.90;;
8247;SDS011;4164;49.844;8.830;2023-03-01T08:58:43;20.27;;;11.90;;
8247;SDS011;4164;49.844;8.830;2023-03-01T09:01:10;18.97;;;11.63;;
8247;SDS011;4164;49.844;8.830;2023-03-01T09:03:37;19.00;;;11.87;;
8247;SDS011;4164;49.844;8.830;2023-03-01T09:06:03;19.37;;;11.57;;
8247;SDS011;4164;49.844;8.830;2023-03-01T09:08:30;19.90;;;11.97;;
8247;SDS011;4164;49.844;8.830;2023-03-01T09:10:56;21.53;;;12.13;;
8247;SDS011;4164;49.844;8.830;2023-03-01T09:13:21;18.80;;;11.83;;
8247;SDS011;4164;49.844;8.830;2023-03-01T09:15:50;17.67;;;11.50;;
8247;SDS011;4164;49.844;8.830;2023-03-01T09:18:16;19.00;;;11.30;;
8247;SDS011;4164;49.844;8.830;2023-03-01T09:20:42;23.23;;;12.87;;
8247;SDS011;4164;49.844;8.830;2023-03-01T09:23:07;22.60;;;11.97;;
8247;SDS011;4164;49.844;8.830;2023-03-01T09:25:34;18.33;;;11.53;;
8247;SDS011;4164;49.844;8.830;2023-03-01T09:28:00;17.70;;;11.60;;
8247;SDS011;4164;49.844;8.830;2023-03-01T09:30:25;19.10;;;10.77;;
8247;SDS011;4164;49.844;8.830;2023-03-01T09:32:51;16.97;;;10.67;;
8247;SDS011;4164;49.844;8.830;2023-03-01T09:35:17;16.83;;;11.33;;
8247;SDS011;4164;49.844;8.830;2023-03-01T09:37:44;22.77;;;11.93;;
8247;SDS011;4164;49.844;8.830;2023-03-01T09:40:14;16.90;;;11.30;;
8247;SDS011;4164;49.844;8.830;2023-03-01T09:42:52;19.70;;;11.23;;
8247;SDS011;4164;49.844;8.830;2023-03-01T09:47:59;21.67;;;11.40;;
8247;SDS011;4164;49.844;8.830;2023-03-01T09:50:26;19.93;;;12.50;;
8247;SDS011;4164;49.844;8.830;2023-03-01T09:53:05;21.20;;;12.23;;
8247;SDS011;4164;49.844;8.830;2023-03-01T10:01:57;21.53;;;12.10;;
8247;SDS011;4164;49.844;8.830;2023-03-01T10:04:49;20.30;;;12.67;;
8247;SDS011;4164;49.844;8.830;2023-03-01T10:10:16;23.30;;;13.63;;
8247;SDS011;4164;49.844;8.830;2023-03-01T10:13:04;21.20;;;12.67;;
8247;SDS011;4164;49.844;8.830;2023-03-01T10:15:40;21.43;;;13.87;;
8247;SDS011;4164;49.844;8.830;2023-03-01T10:18:12;22.57;;;14.00;;
8247;SDS011;4164;49.844;8.830;2023-03-01T10:20:54;19.47;;;13.17;;
8247;SDS011;4164;49.844;8.830;2023-03-01T10:23:27;19.70;;;12.70;;
8247;SDS011;4164;49.844;8.830;2023-03-01T10:28:47;20.57;;;12.73;;
8247;SDS011;4164;49.844;8.830;2023-03-01T10:31:18;19.53;;;12.37;;
8247;SDS011;4164;49.844;8.830;2023-03-01T10:33:47;20.93;;;13.53;;
8247;SDS011;4164;49.844;8.830;2023-03-01T10:36:16;23.00;;;12.87;;
8247;SDS011;4164;49.844;8.830;2023-03-01T10:38:49;18.03;;;12.53;;
8247;SDS011;4164;49.844;8.830;2023-03-01T10:41:18;20.13;;;13.90;;
8247;SDS011;4164;49.844;8.830;2023-03-01T10:43:46;20.73;;;13.17;;
8247;SDS011;4164;49.844;8.830;2023-03-01T10:46:33;17.50;;;12.20;;
8247;SDS011;4164;49.844;8.830;2023-03-01T10:49:14;22.80;;;12.13;;
8247;SDS011;4164;49.844;8.830;2023-03-01T10:51:45;19.20;;;11.90;;
8247;SDS011;4164;49.844;8.830;2023-03-01T10:54:17;16.40;;;11.37;;
8247;SDS011;4164;49.844;8.830;2023-03-01T10:56:46;17.10;;;12.57;;
8247;SDS011;4164;49.844;8.830;2023-03-01T11:04:40;17.73;;;11.87;;
8247;SDS011;4164;49.844;8.830;2023-03-01T11:07:25;20.13;;;12.10;;
8247;SDS011;4164;49.844;8.830;2023-03-01T11:09:51;14.10;;;11.17;;
8247;SDS011;4164;49.844;8.830;2023-03-01T11:12:17;18.47;;;12.00;;
8247;SDS011;4164;49.844;8.830;2023-03-01T11:15:19;15.17;;;11.60;;
8247;SDS011;4164;49.844;8.830;2023-03-01T11:17:45;15.77;;;11.40;;
8247;SDS011;4164;49.844;8.830;2023-03-01T11:25:36;14.70;;;11.07;;
8247;SDS011;4164;49.844;8.830;2023-03-01T11:28:05;19.87;;;11.90;;
8247;SDS011;4164;49.844;8.830;2023-03-01T11:30:38;15.33;;;11.20;;
8247;SDS011;4164;49.844;8.830;2023-03-01T11:36:04;13.53;;;10.80;;
8247;SDS011;4164;49.844;8.830;2023-03-01T11:38:40;14.87;;;10.57;;
8247;SDS011;4164;49.844;8.830;2023-03-01T11:41:16;13.13;;;10.27;;
8247;SDS011;4164;49.844;8.830;2023-03-01T11:49:47;14.93;;;10.10;;
8247;SDS011;4164;49.844;8.830;2023-03-01T11:55:10;14.97;;;11.20;;
8247;SDS011;4164;49.844;8.830;2023-03-01T12:05:54;12.77;;;10.77;;
8247;SDS011;4164;49.844;8.830;2023-03-01T12:08:42;14.43;;;10.70;;
8247;SDS011;4164;49.844;8.830;2023-03-01T12:11:24;19.60;;;12.40;;
8247;SDS011;4164;49.844;8.830;2023-03-01T12:24:49;17.70;;;12.73;;
8247;SDS011;4164;49.844;8.830;2023-03-01T12:33:09;13.73;;;10.57;;
8247;SDS011;4164;49.844;8.830;2023-03-01T12:38:37;13.63;;;10.30;;
8247;SDS011;4164;49.844;8.830;2023-03-01T12:44:33;10.57;;;9.10;;
8247;SDS011;4164;49.844;8.830;2023-03-01T12:47:20;10.57;;;9.47;;
8247;SDS011;4164;49.844;8.830;2023-03-01T12:49:51;10.47;;;8.63;;
8247;SDS011;4164;49.844;8.830;2023-03-01T12:54:56;12.40;;;8.70;;
8247;SDS011;4164;49.844;8.830;2023-03-01T13:00:17;9.17;;;8.13;;
8247;SDS011;4164;49.844;8.830;2023-03-01T13:03:02;13.00;;;8.60;;
8247;SDS011;4164;49.844;8.830;2023-03-01T13:13:22;9.10;;;7.90;;
8247;SDS011;4164;49.844;8.830;2023-03-01T13:15:50;11.17;;;7.73;;
8247;SDS011;4164;49.844;8.830;2023-03-01T13:33:47;10.93;;;8.13;;
8247;SDS011;4164;49.844;8.830;2023-03-01T13:36:47;9.10;;;7.57;;
8247;SDS011;4164;49.844;8.830;2023-03-01T13:39:27;9.10;;;6.97;;
8247;SDS011;4164;49.844;8.830;2023-03-01T13:42:03;10.33;;;8.00;;
8247;SDS011;4164;49.844;8.830;2023-03-01T13:44:49;10.20;;;7.70;;
8247;SDS011;4164;49.844;8.830;2023-03-01T13:47:15;7.80;;;7.00;;
8247;SDS011;4164;49.844;8.830;2023-03-01T13:49:43;12.20;;;7.30;;
8247;SDS011;4164;49.844;8.830;2023-03-01T13:52:22;8.43;;;7.00;;
8247;SDS011;4164;49.844;8.830;2023-03-01T13:57:40;9.63;;;7.07;;
8247;SDS011;4164;49.844;8.830;2023-03-01T14:00:31;8.00;;;7.20;;
8247;SDS011;4164;49.844;8.830;2023-03-01T14:03:19;12.93;;;8.07;;
8247;SDS011;4164;49.844;8.830;2023-03-01T14:08:33;9.30;;;7.37;;
8247;SDS011;4164;49.844;8.830;2023-03-01T14:11:09;10.30;;;6.87;;
8247;SDS011;4164;49.844;8.830;2023-03-01T14:16:51;10.50;;;6.90;;
8247;SDS011;4164;49.844;8.830;2023-03-01T14:19:30;10.57;;;6.67;;
8247;SDS011;4164;49.844;8.830;2023-03-01T14:22:13;10.73;;;6.53;;
8247;SDS011;4164;49.844;8.830;2023-03-01T14:24:54;8.70;;;6.40;;
8247;SDS011;4164;49.844;8.830;2023-03-01T14:27:23;12.70;;;6.57;;
8247;SDS011;4164;49.844;8.830;2023-03-01T14:30:10;9.70;;;6.90;;
8247;SDS011;4164;49.844;8.830;2023-03-01T14:32:37;9.87;;;6.40;;
8247;SDS011;4164;49.844;8.830;2023-03-01T14:35:18;13.97;;;6.53;;
8247;SDS011;4164;49.844;8.830;2023-03-01T14:37:45;9.27;;;7.07;;
8247;SDS011;4164;49.844;8.830;2023-03-01T14:40:19;8.37;;;6.80;;
8247;SDS011;4164;49.844;8.830;2023-03-01T14:42:47;9.17;;;6.40;;
8247;SDS011;4164;49.844;8.830;2023-03-01T14:45:13;9.07;;;6.43;;
8247;SDS011;4164;49.844;8.830;2023-03-01T14:47:39;9.70;;;6.70;;
8247;SDS011;4164;49.844;8.830;2023-03-01T14:50:09;11.77;;;6.97;;
8247;SDS011;4164;49.844;8.830;2023-03-01T14:52:47;10.53;;;6.37;;
8247;SDS011;4164;49.844;8.830;2023-03-01T14:55:16;10.70;;;6.53;;
8247;SDS011;4164;49.844;8.830;2023-03-01T14:57:46;11.00;;;7.60;;
8247;SDS011;4164;49.844;8.830;2023-03-01T15:00:16;13.33;;;6.80;;
8247;SDS011;4164;49.844;8.830;2023-03-01T15:02:45;9.53;;;5.87;;
8247;SDS011;4164;49.844;8.830;2023-03-01T15:05:13;13.13;;;7.97;;
8247;SDS011;4164;49.844;8.830;2023-03-01T15:07:43;14.93;;;8.80;;
8247;SDS011;4164;49.844;8.830;2023-03-01T15:10:20;11.70;;;7.93;;
8247;SDS011;4164;49.844;8.830;2023-03-01T15:13:09;14.03;;;8.30;;
8247;SDS011;4164;49.844;8.830;2023-03-01T15:15:44;12.93;;;8.20;;
8247;SDS011;4164;49.844;8.830;2023-03-01T15:18:21;14.00;;;9.00;;
8247;SDS011;4164;49.844;8.830;2023-03-01T15:20:51;13.77;;;8.20;;
8247;SDS011;4164;49.844;8.830;2023-03-01T15:23:25;13.23;;;8.77;;
8247;SDS011;4164;49.844;8.830;2023-03-01T15:25:55;13.87;;;8.37;;
8247;SDS011;4164;49.844;8.830;2023-03-01T15:28:22;15.23;;;9.30;;
8247;SDS011;4164;49.844;8.830;2023-03-01T15:30:55;11.67;;;8.20;;
8247;SDS011;4164;49.844;8.830;2023-03-01T15:33:36;14.77;;;9.30;;
8247;SDS011;4164;49.844;8.830;2023-03-01T15:36:04;15.23;;;8.73;;
8247;SDS011;4164;49.844;8.830;2023-03-01T15:38:57;12.20;;;8.57;;
8247;SDS011;4164;49.844;8.830;2023-03-01T15:44:14;14.70;;;8.13;;
8247;SDS011;4164;49.844;8.830;2023-03-01T15:46:50;14.67;;;8.87;;
8247;SDS011;4164;49.844;8.830;2023-03-01T15:52:12;11.33;;;7.83;;
8247;SDS011;4164;49.844;8.830;2023-03-01T15:54:54;14.83;;;8.13;;
8247;SDS011;4164;49.844;8.830;2023-03-01T15:57:21;12.63;;;7.53;;
8247;SDS011;4164;49.844;8.830;2023-03-01T15:59:47;14.30;;;8.70;;
8247;SDS011;4164;49.844;8.830;2023-03-01T16:02:12;13.17;;;7.83;;
8247;SDS011;4164;49.844;8.830;2023-03-01T16:04:39;14.50;;;9.07;;
8247;SDS011;4164;49.844;8.830;2023-03-01T16:07:04;19.33;;;8.67;;
8247;SDS011;4164;49.844;8.830;2023-03-01T16:09:30;13.40;;;8.60;;
8247;SDS011;4164;49.844;8.830;2023-03-01T16:11:56;14.60;;;7.83;;
8247;SDS011;4164;49.844;8.830;2023-03-01T16:14:21;16.00;;;8.70;;
8247;SDS011;4164;49.844;8.830;2023-03-01T16:16:47;12.80;;;8.10;;
8247;SDS011;4164;49.844;8.830;2023-03-01T16:19:14;14.37;;;8.70;;
8247;SDS011;4164;49.844;8.830;2023-03-01T16:21:40;14.23;;;9.03;;
8247;SDS011;4164;49.844;8.830;2023-03-01T16:24:07;18.73;;;8.07;;
8247;SDS011;4164;49.844;8.830;2023-03-01T16:26:33;14.37;;;8.47;;
8247;SDS011;4164;49.844;8.830;2023-03-01T16:28:59;19.70;;;8.07;;
8247;SDS011;4164;49.844;8.830;2023-03-01T16:31:25;14.10;;;7.20;;
8247;SDS011;4164;49.844;8.830;2023-03-01T16:33:55;14.00;;;8.43;;
8247;SDS011;4164;49.844;8.830;2023-03-01T16:36:22;22.57;;;8.63;;
8247;SDS011;4164;49.844;8.830;2023-03-01T16:38:49;15.00;;;8.63;;
8247;SDS011;4164;49.844;8.830;2023-03-01T16:41:17;20.33;;;11.90;;
8247;SDS011;4164;49.844;8.830;2023-03-01T16:43:44;14.13;;;8.63;;
8247;SDS011;4164;49.844;8.830;2023-03-01T16:46:16;14.37;;;9.87;;
8247;SDS011;4164;49.844;8.830;2023-03-01T16:48:43;14.47;;;8.97;;
8247;SDS011;4164;49.844;8.830;2023-03-01T16:51:09;15.07;;;9.63;;
8247;SDS011;4164;49.844;8.830;2023-03-01T16:53:35;16.97;;;9.30;;
8247;SDS011;4164;49.844;8.830;2023-03-01T16:56:01;15.70;;;8.83;;
8247;SDS011;4164;49.844;8.830;2023-03-01T16:58:29;16.83;;;10.00;;
8247;SDS011;4164;49.844;8.830;2023-03-01T17:00:54;17.07;;;10.47;;
8247;SDS011;4164;49.844;8.830;2023-03-01T17:03:21;14.93;;;9.77;;